createdAt,value
2023-10-04T00:02:12.068Z,100586.19
2023-10-04T00:04:40.274Z,100578.59
2023-10-04T00:07:08.256Z,100585.41
2023-10-04T00:09:36.175Z,100593.53
2023-10-04T00:12:03.289Z,100591.91
2023-10-04T00:14:30.000Z,100594.88
2023-10-04T00:16:56.614Z,100591.66
2023-10-04T00:19:23.147Z,100597.09
2023-10-04T00:21:49.709Z,100606.59
2023-10-04T00:24:16.354Z,100611.22
2023-10-04T00:26:46.544Z,100609.38
2023-10-04T00:29:13.145Z,100614.25
2023-10-04T00:31:39.713Z,100614.50
2023-10-04T00:34:09.731Z,100615.84
2023-10-04T00:36:36.509Z,100617.47
2023-10-04T00:39:04.462Z,100621.56
2023-10-04T00:41:31.332Z,100617.75
2023-10-04T00:43:59.841Z,100623.44
2023-10-04T00:46:26.986Z,100614.25
2023-10-04T00:48:57.359Z,100605.56
2023-10-04T00:51:24.456Z,100612.09
2023-10-04T00:53:51.695Z,100606.69
2023-10-04T00:56:18.289Z,100617.53
2023-10-04T00:58:46.945Z,100623.19
2023-10-04T01:01:15.519Z,100620.78
2023-10-04T01:03:42.650Z,100622.91
2023-10-04T01:06:10.314Z,100624.00
2023-10-04T01:08:36.821Z,100630.25
2023-10-04T01:11:03.739Z,100625.91
2023-10-04T01:13:30.438Z,100627.78
2023-10-04T01:15:58.401Z,100632.69
2023-10-04T01:18:25.225Z,100640.81
2023-10-04T01:20:52.967Z,100628.88
2023-10-04T01:23:19.955Z,100643.50
2023-10-04T01:25:47.910Z,100641.34
2023-10-04T01:28:28.062Z,100647.59
2023-10-04T01:30:56.774Z,100653.28
2023-10-04T01:33:23.823Z,100655.44
2023-10-04T01:35:55.255Z,100655.97
2023-10-04T01:38:26.269Z,100645.97
2023-10-04T01:40:54.480Z,100647.34
2023-10-04T01:43:21.628Z,100638.69
2023-10-04T01:45:50.095Z,100645.16
2023-10-04T01:48:17.158Z,100637.59
2023-10-04T01:50:44.663Z,100641.41
2023-10-04T01:53:12.226Z,100639.75
2023-10-04T01:55:38.793Z,100644.09
2023-10-04T01:58:05.837Z,100637.59
2023-10-04T02:00:35.128Z,100629.19
2023-10-04T02:03:02.833Z,100622.44
2023-10-04T02:05:32.973Z,100633.81
2023-10-04T02:08:00.274Z,100630.56
2023-10-04T02:10:27.484Z,100630.53
2023-10-04T02:12:56.904Z,100626.75
2023-10-04T02:15:24.019Z,100630.56
2023-10-04T02:17:54.589Z,100622.72
2023-10-04T02:20:24.671Z,100630.56
2023-10-04T02:22:51.800Z,100631.09
2023-10-04T02:25:20.677Z,100634.06
2023-10-04T02:27:50.410Z,100631.09
2023-10-04T02:30:23.295Z,100628.66
2023-10-04T02:32:54.621Z,100624.31
2023-10-04T02:35:28.177Z,100619.19
2023-10-04T02:38:02.007Z,100617.28
2023-10-04T02:40:29.451Z,100616.19
2023-10-04T02:42:56.709Z,100613.22
2023-10-04T02:45:25.987Z,100622.69
2023-10-04T02:47:54.151Z,100627.28
2023-10-04T02:50:22.524Z,100624.31
2023-10-04T02:52:51.409Z,100627.03
2023-10-04T02:55:19.393Z,100628.38
2023-10-04T02:57:50.639Z,100631.34
2023-10-04T03:00:20.479Z,100648.94
2023-10-04T03:02:49.449Z,100638.38
2023-10-04T03:05:19.885Z,100630.53
2023-10-04T03:07:48.470Z,100634.56
2023-10-04T03:10:24.700Z,100634.56
2023-10-04T03:13:02.098Z,100629.44
2023-10-04T03:15:29.436Z,100629.72
2023-10-04T03:17:59.077Z,100624.03
2023-10-04T03:20:29.371Z,100629.44
2023-10-04T03:22:56.891Z,100625.66
2023-10-04T03:25:28.355Z,100626.22
2023-10-04T03:27:55.280Z,100621.06
2023-10-04T03:30:21.981Z,100614.31
2023-10-04T03:32:53.936Z,100614.31
2023-10-04T03:35:23.782Z,100621.88
2023-10-04T03:37:59.948Z,100609.44
2023-10-04T03:40:35.869Z,100617.00
2023-10-04T03:43:09.190Z,100606.97
2023-10-04T03:45:36.963Z,100601.84
2023-10-04T03:48:06.578Z,100606.97
2023-10-04T03:50:33.186Z,100599.41
2023-10-04T03:52:59.685Z,100598.03
2023-10-04T03:55:29.039Z,100599.66
2023-10-04T03:57:56.098Z,100596.69
2023-10-04T04:00:24.667Z,100594.53
2023-10-04T04:02:52.098Z,100607.78
2023-10-04T04:05:22.728Z,100609.94
2023-10-04T04:07:49.740Z,100597.25
2023-10-04T04:10:19.942Z,100593.47
2023-10-04T04:12:47.925Z,100598.59
2023-10-04T04:15:22.002Z,100595.09
2023-10-04T04:17:49.614Z,100593.75
2023-10-04T04:20:17.039Z,100603.47
2023-10-04T04:22:47.279Z,100611.06
2023-10-04T04:25:16.694Z,100616.47
2023-10-04T04:27:47.021Z,100613.72
2023-10-04T04:30:20.641Z,100616.19
2023-10-04T04:32:53.797Z,100618.34
2023-10-04T04:35:40.546Z,100617.25
2023-10-04T04:38:11.852Z,100615.63
2023-10-04T04:40:39.886Z,100622.66
2023-10-04T04:43:24.267Z,100618.59
2023-10-04T04:45:52.943Z,100616.44
2023-10-04T04:48:24.924Z,100608.31
2023-10-04T04:51:03.800Z,100601.03
2023-10-04T04:53:30.461Z,100612.16
2023-10-04T04:55:57.060Z,100620.66
2023-10-04T04:58:24.279Z,100607.81
2023-10-04T05:00:56.341Z,100607.38
2023-10-04T05:03:25.228Z,100610.16
2023-10-04T05:05:51.828Z,100606.22
2023-10-04T05:08:18.908Z,100607.66
2023-10-04T05:10:47.070Z,100606.63
2023-10-04T05:13:14.693Z,100599.69
2023-10-04T05:15:43.812Z,100602.75
2023-10-04T05:18:17.204Z,100596.44
2023-10-04T05:20:45.031Z,100610.44
2023-10-04T05:23:11.652Z,100602.56
2023-10-04T05:25:38.698Z,100613.09
2023-10-04T05:28:15.197Z,100611.53
2023-10-04T05:30:45.950Z,100628.03
2023-10-04T05:33:16.829Z,100621.47
2023-10-04T05:35:44.855Z,100639.47
2023-10-04T05:38:13.325Z,100637.78
2023-10-04T05:40:46.440Z,100639.34
2023-10-04T05:43:13.220Z,100645.31
2023-10-04T05:45:43.329Z,100652.47
2023-10-04T05:48:11.554Z,100645.44
2023-10-04T05:50:39.766Z,100636.66
2023-10-04T05:53:07.702Z,100634.38
2023-10-04T05:55:36.109Z,100625.41
2023-10-04T05:58:11.113Z,100637.09
2023-10-04T06:00:42.022Z,100621.84
2023-10-04T06:03:13.181Z,100630.19
2023-10-04T06:05:41.632Z,100625.66
2023-10-04T06:08:19.310Z,100633.78
2023-10-04T06:10:48.189Z,100644.06
2023-10-04T06:13:18.296Z,100649.47
2023-10-04T06:15:47.400Z,100654.03
2023-10-04T06:18:14.775Z,100652.66
2023-10-04T06:20:42.254Z,100660.81
2023-10-04T06:23:13.408Z,100665.13
2023-10-04T06:25:53.634Z,100664.56
2023-10-04T06:28:21.421Z,100669.16
2023-10-04T06:30:50.000Z,100669.66
2023-10-04T06:33:17.601Z,100661.25
2023-10-04T06:35:44.905Z,100666.06
2023-10-04T06:38:14.011Z,100672.63
2023-10-04T06:40:41.170Z,100678.00
2023-10-04T06:43:12.040Z,100663.03
2023-10-04T06:45:41.043Z,100676.81
2023-10-04T06:48:09.189Z,100674.63
2023-10-04T06:50:39.700Z,100672.22
2023-10-04T06:53:07.462Z,100680.56
2023-10-04T06:55:35.289Z,100685.22
2023-10-04T06:58:02.120Z,100689.16
2023-10-04T07:00:37.606Z,100684.13
2023-10-04T07:03:05.412Z,100684.28
2023-10-04T07:05:40.804Z,100695.94
2023-10-04T07:08:10.165Z,100689.59
2023-10-04T07:10:37.784Z,100685.25
2023-10-04T07:13:06.344Z,100690.56
2023-10-04T07:15:37.035Z,100691.78
2023-10-04T07:18:08.309Z,100689.63
2023-10-04T07:20:35.730Z,100694.66
2023-10-04T07:23:09.023Z,100682.06
2023-10-04T07:25:40.777Z,100686.63
2023-10-04T07:28:11.108Z,100692.53
2023-10-04T07:30:39.587Z,100687.34
2023-10-04T07:33:06.536Z,100680.94
2023-10-04T07:35:34.247Z,100684.00
2023-10-04T07:38:02.209Z,100687.13
2023-10-04T07:40:32.214Z,100689.16
2023-10-04T07:43:00.586Z,100691.66
2023-10-04T07:45:29.545Z,100687.25
2023-10-04T07:47:57.469Z,100692.09
2023-10-04T07:50:24.849Z,100696.19
2023-10-04T07:52:53.701Z,100687.75
2023-10-04T07:55:20.360Z,100700.44
2023-10-04T07:57:47.966Z,100700.88
2023-10-04T08:00:16.506Z,100696.78
2023-10-04T08:02:53.712Z,100703.88
2023-10-04T08:05:21.910Z,100707.34
2023-10-04T08:07:49.823Z,100705.72
2023-10-04T08:10:24.350Z,100705.72
2023-10-04T08:12:56.046Z,100696.09
2023-10-04T08:15:27.044Z,100706.72
2023-10-04T08:17:55.459Z,100699.09
2023-10-04T08:20:24.338Z,100705.00
2023-10-04T08:22:51.655Z,100708.91
2023-10-04T08:25:22.526Z,100708.53
2023-10-04T08:27:49.427Z,100715.91
2023-10-04T08:30:18.002Z,100710.75
2023-10-04T08:35:37.191Z,100720.25
2023-10-04T08:38:06.343Z,100724.97
2023-10-04T08:40:39.391Z,100719.97
2023-10-04T08:43:07.396Z,100721.75
2023-10-04T08:45:35.746Z,100721.38
2023-10-04T08:48:03.736Z,100727.81
2023-10-04T08:50:39.561Z,100717.41
2023-10-04T08:53:37.544Z,100721.06
2023-10-04T08:56:10.005Z,100715.19
2023-10-04T08:58:37.899Z,100723.59
2023-10-04T09:01:08.168Z,100722.84
2023-10-04T09:03:37.131Z,100711.44
2023-10-04T09:06:06.572Z,100732.53
2023-10-04T09:08:33.474Z,100716.06
2023-10-04T09:11:00.071Z,100718.50
2023-10-04T09:13:26.875Z,100728.50
2023-10-04T09:15:53.606Z,100734.69
2023-10-04T09:18:27.946Z,100739.06
2023-10-04T09:20:54.795Z,100736.19
2023-10-04T09:23:23.824Z,100739.75
2023-10-04T09:25:55.220Z,100731.41
2023-10-04T09:28:37.494Z,100739.03
2023-10-04T09:31:20.065Z,100737.22
2023-10-04T09:33:46.729Z,100731.63
2023-10-04T09:36:14.855Z,100735.97
2023-10-04T09:38:42.419Z,100733.09
2023-10-04T09:41:11.501Z,100725.63
2023-10-04T09:43:41.089Z,100735.72
2023-10-04T09:46:11.960Z,100733.28
2023-10-04T09:48:42.318Z,100730.41
2023-10-04T09:51:10.620Z,100728.22
2023-10-04T09:53:41.650Z,100725.56
2023-10-04T09:56:13.564Z,100725.81
2023-10-04T09:58:50.910Z,100730.38
2023-10-04T10:01:21.489Z,100735.34
2023-10-04T10:03:56.877Z,100735.47
2023-10-04T10:06:27.907Z,100737.09
2023-10-04T10:08:59.979Z,100748.63
2023-10-04T10:11:28.514Z,100740.06
2023-10-04T10:13:56.638Z,100736.59
2023-10-04T10:16:24.731Z,100737.88
2023-10-04T10:18:53.571Z,100734.31
2023-10-04T10:21:20.701Z,100724.06
2023-10-04T10:24:15.445Z,100735.41
2023-10-04T10:26:42.247Z,100728.75
2023-10-04T10:29:21.647Z,100720.69
2023-10-04T10:31:55.175Z,100715.25
2023-10-04T10:34:21.898Z,100708.16
2023-10-04T10:37:08.238Z,100711.66
2023-10-04T10:39:44.322Z,100699.41
2023-10-04T10:42:12.871Z,100698.75
2023-10-04T10:44:40.749Z,100691.13
2023-10-04T10:47:16.077Z,100689.00
2023-10-04T10:49:49.453Z,100685.75
2023-10-04T10:52:35.782Z,100691.63
2023-10-04T10:55:07.691Z,100693.38
2023-10-04T10:57:37.729Z,100698.72
2023-10-04T11:00:16.381Z,100688.78
2023-10-04T11:02:43.312Z,100693.50
2023-10-04T11:05:13.178Z,100687.84
2023-10-04T11:07:40.155Z,100694.56
2023-10-04T11:10:07.818Z,100686.97
2023-10-04T11:12:38.873Z,100680.22
2023-10-04T11:15:09.534Z,100670.56
2023-10-04T11:17:38.972Z,100677.34
2023-10-04T11:20:13.264Z,100678.81
2023-10-04T11:22:41.173Z,100676.06
2023-10-04T11:25:10.070Z,100672.84
2023-10-04T11:27:38.479Z,100668.81
2023-10-04T11:30:06.692Z,100674.13
2023-10-04T11:32:33.487Z,100663.03
2023-10-04T11:35:00.639Z,100669.50
2023-10-04T11:37:31.054Z,100664.84
2023-10-04T11:39:59.060Z,100663.91
2023-10-04T11:42:26.358Z,100670.19
2023-10-04T11:44:53.141Z,100664.41
2023-10-04T11:47:32.792Z,100658.59
2023-10-04T11:50:01.802Z,100661.03
2023-10-04T11:52:32.990Z,100646.88
2023-10-04T11:55:00.448Z,100637.41
2023-10-04T11:57:41.384Z,100633.06
2023-10-04T12:00:19.137Z,100627.72
2023-10-04T12:02:45.817Z,100618.00
2023-10-04T12:05:15.432Z,100622.69
2023-10-04T12:07:42.126Z,100629.78
2023-10-04T12:10:10.988Z,100615.56
2023-10-04T12:12:38.357Z,100617.69
2023-10-04T12:15:09.258Z,100607.38
2023-10-04T12:17:37.510Z,100621.94
2023-10-04T12:20:08.432Z,100623.38
2023-10-04T12:22:35.958Z,100622.09
2023-10-04T12:25:02.698Z,100616.56
2023-10-04T12:27:29.314Z,100620.47
2023-10-04T12:29:57.996Z,100617.25
2023-10-04T12:32:25.059Z,100620.00
2023-10-04T12:34:51.607Z,100606.91
2023-10-04T12:37:18.212Z,100590.81
2023-10-04T12:39:44.917Z,100583.25
2023-10-04T12:42:11.530Z,100587.25
2023-10-04T12:44:43.147Z,100583.06
2023-10-04T12:47:10.030Z,100580.16
2023-10-04T12:49:38.274Z,100568.69
2023-10-04T12:52:05.484Z,100566.16
2023-10-04T12:54:32.596Z,100562.09
2023-10-04T12:56:59.227Z,100566.13
2023-10-04T12:59:25.836Z,100559.16
2023-10-04T13:01:54.661Z,100569.44
2023-10-04T13:04:21.477Z,100561.00
2023-10-04T13:06:48.236Z,100570.03
2023-10-04T13:09:16.809Z,100548.88
2023-10-04T13:11:45.588Z,100547.75
2023-10-04T13:14:12.403Z,100546.94
2023-10-04T13:16:41.396Z,100551.00
2023-10-04T13:19:08.268Z,100553.59
2023-10-04T13:21:34.958Z,100544.38
2023-10-04T13:24:01.455Z,100546.59
2023-10-04T13:26:28.003Z,100538.28
2023-10-04T13:28:54.500Z,100534.78
2023-10-04T13:31:21.032Z,100540.13
2023-10-04T13:33:47.714Z,100528.69
2023-10-04T13:36:15.365Z,100524.91
2023-10-04T13:38:41.918Z,100539.78
2023-10-04T13:41:13.224Z,100547.41
2023-10-04T13:43:40.079Z,100546.53
2023-10-04T13:46:07.378Z,100551.09
2023-10-04T13:48:34.196Z,100557.69
2023-10-04T13:51:00.928Z,100555.75
2023-10-04T13:53:29.896Z,100550.31
2023-10-04T13:55:56.529Z,100551.91
2023-10-04T13:58:24.878Z,100540.03
2023-10-04T14:00:57.916Z,100541.97
2023-10-04T14:03:24.960Z,100531.69
2023-10-04T14:05:54.812Z,100533.94
2023-10-04T14:08:21.794Z,100529.47
2023-10-04T14:10:48.894Z,100535.28
2023-10-04T14:13:16.401Z,100534.81
2023-10-04T14:15:43.445Z,100539.94
2023-10-04T14:18:12.103Z,100533.72
2023-10-04T14:20:38.793Z,100534.94
2023-10-04T14:23:11.572Z,100528.88
2023-10-04T14:25:39.675Z,100519.31
2023-10-04T14:28:07.505Z,100520.06
2023-10-04T14:30:34.163Z,100518.50
2023-10-04T14:33:00.907Z,100508.47
2023-10-04T14:35:28.762Z,100511.97
2023-10-04T14:37:56.801Z,100514.81
2023-10-04T14:40:26.373Z,100509.44
2023-10-04T14:42:55.930Z,100509.97
2023-10-04T14:45:24.006Z,100504.66
2023-10-04T14:47:50.964Z,100516.16
2023-10-04T14:50:19.058Z,100499.53
2023-10-04T14:52:46.817Z,100484.72
2023-10-04T14:55:21.293Z,100482.38
2023-10-04T14:57:48.162Z,100492.06
2023-10-04T15:00:18.254Z,100485.97
2023-10-04T15:02:48.221Z,100484.53
2023-10-04T15:05:15.106Z,100480.84
2023-10-04T15:07:42.014Z,100481.28
2023-10-04T15:10:18.237Z,100473.88
2023-10-04T15:12:46.543Z,100480.53
2023-10-04T15:15:13.202Z,100481.72
2023-10-04T15:17:40.153Z,100478.56
2023-10-04T15:20:08.005Z,100474.44
2023-10-04T15:22:40.275Z,100471.41
2023-10-04T15:25:12.961Z,100478.28
2023-10-04T15:27:46.515Z,100471.81
2023-10-04T15:30:23.767Z,100471.69
2023-10-04T15:32:54.533Z,100473.72
2023-10-04T15:35:28.765Z,100466.06
2023-10-04T15:38:01.202Z,100457.63
2023-10-04T15:40:31.908Z,100459.22
2023-10-04T15:42:59.859Z,100463.50
2023-10-04T15:45:26.604Z,100474.72
2023-10-04T15:47:53.609Z,100471.28
2023-10-04T15:50:22.308Z,100471.97
2023-10-04T15:52:48.865Z,100471.78
2023-10-04T15:55:16.304Z,100463.25
2023-10-04T15:57:47.307Z,100460.03
2023-10-04T16:00:34.307Z,100454.22
2023-10-04T16:03:02.322Z,100457.53
2023-10-04T16:05:29.849Z,100448.13
2023-10-04T16:07:56.773Z,100458.44
2023-10-04T16:10:26.801Z,100452.69
2023-10-04T16:12:57.452Z,100446.41
2023-10-04T16:15:24.615Z,100458.22
2023-10-04T16:17:51.525Z,100453.09
2023-10-04T16:20:18.696Z,100449.88
2023-10-04T16:22:48.682Z,100455.97
2023-10-04T16:25:15.275Z,100460.09
2023-10-04T16:27:45.813Z,100452.91
2023-10-04T16:30:15.747Z,100443.19
2023-10-04T16:32:47.649Z,100444.84
2023-10-04T16:35:16.636Z,100444.44
2023-10-04T16:37:44.406Z,100451.97
2023-10-04T16:40:14.274Z,100454.56
2023-10-04T16:42:45.176Z,100470.88
2023-10-04T16:45:13.862Z,100463.31
2023-10-04T16:47:42.783Z,100453.81
2023-10-04T16:50:09.734Z,100458.91
2023-10-04T16:52:36.273Z,100464.47
2023-10-04T16:55:06.560Z,100454.41
2023-10-04T16:57:33.395Z,100464.63
2023-10-04T16:59:59.936Z,100473.97
2023-10-04T17:02:26.488Z,100472.88
2023-10-04T17:04:53.060Z,100471.75
2023-10-04T17:07:19.714Z,100478.50
2023-10-04T17:09:46.601Z,100477.88
2023-10-04T17:12:13.168Z,100474.13
2023-10-04T17:14:40.658Z,100482.06
2023-10-04T17:17:08.839Z,100487.22
2023-10-04T17:19:35.898Z,100479.88
2023-10-04T17:22:02.990Z,100482.28
2023-10-04T17:24:30.081Z,100484.09
2023-10-04T17:26:56.702Z,100487.50
2023-10-04T17:29:23.237Z,100489.34
2023-10-04T17:31:49.851Z,100489.72
2023-10-04T17:34:16.473Z,100487.09
2023-10-04T17:36:43.929Z,100488.00
2023-10-04T17:39:15.100Z,100490.22
2023-10-04T17:41:42.130Z,100485.34
2023-10-04T17:44:08.964Z,100482.31
2023-10-04T17:46:36.386Z,100489.09
2023-10-04T17:49:03.256Z,100488.81
2023-10-04T17:51:30.576Z,100488.50
2023-10-04T17:53:59.424Z,100491.59
2023-10-04T17:56:26.550Z,100490.38
2023-10-04T17:58:53.077Z,100486.09
2023-10-04T18:01:19.805Z,100492.84
2023-10-04T18:03:47.486Z,100505.44
2023-10-04T18:06:15.873Z,100504.72
2023-10-04T18:08:42.429Z,100505.00
2023-10-04T18:11:09.152Z,100508.31
2023-10-04T18:13:36.142Z,100505.69
2023-10-04T18:16:03.659Z,100507.47
2023-10-04T18:18:30.694Z,100506.22
2023-10-04T18:20:58.191Z,100513.66
2023-10-04T18:23:25.417Z,100508.78
2023-10-04T18:25:52.010Z,100510.50
2023-10-04T18:28:18.515Z,100510.78
2023-10-04T18:30:45.194Z,100517.13
2023-10-04T18:33:11.987Z,100507.91
2023-10-04T18:35:38.661Z,100515.56
2023-10-04T18:38:06.459Z,100509.09
2023-10-04T18:40:33.039Z,100513.19
2023-10-04T18:42:59.637Z,100498.06
2023-10-04T18:45:26.369Z,100502.47
2023-10-04T18:47:53.005Z,100508.19
2023-10-04T18:50:22.597Z,100503.31
2023-10-04T18:52:49.789Z,100500.88
2023-10-04T18:55:17.634Z,100504.19
2023-10-04T18:57:45.791Z,100505.59
2023-10-04T19:00:16.734Z,100507.84
2023-10-04T19:02:44.184Z,100509.00
2023-10-04T19:05:12.358Z,100509.59
2023-10-04T19:07:40.532Z,100505.31
2023-10-04T19:10:09.703Z,100502.69
2023-10-04T19:12:37.117Z,100506.56
2023-10-04T19:15:05.634Z,100509.03
2023-10-04T19:17:32.485Z,100517.25
2023-10-04T19:19:59.266Z,100523.03
2023-10-04T19:22:25.810Z,100520.38
2023-10-04T19:24:52.406Z,100518.25
2023-10-04T19:27:19.125Z,100530.28
2023-10-04T19:29:45.787Z,100528.41
2023-10-04T19:32:12.903Z,100533.13
2023-10-04T19:34:39.670Z,100530.44
2023-10-04T19:37:06.269Z,100528.06
2023-10-04T19:39:32.884Z,100530.00
2023-10-04T19:42:00.366Z,100520.53
2023-10-04T19:44:26.966Z,100535.50
2023-10-04T19:46:53.746Z,100521.91
2023-10-04T19:49:20.388Z,100529.00
2023-10-04T19:51:47.480Z,100523.09
2023-10-04T19:54:14.099Z,100524.25
2023-10-04T19:56:40.649Z,100520.19
2023-10-04T19:59:07.150Z,100518.81
2023-10-04T20:01:33.838Z,100522.06
2023-10-04T20:04:03.519Z,100511.19
2023-10-04T20:06:31.722Z,100522.63
2023-10-04T20:08:58.351Z,100517.75
2023-10-04T20:11:24.915Z,100519.94
2023-10-04T20:13:54.114Z,100520.50
2023-10-04T20:16:23.806Z,100529.41
2023-10-04T20:18:50.784Z,100528.41
2023-10-04T20:21:19.804Z,100530.13
2023-10-04T20:23:46.624Z,100539.41
2023-10-04T20:26:13.294Z,100540.00
2023-10-04T20:28:39.974Z,100524.56
2023-10-04T20:31:06.689Z,100521.63
2023-10-04T20:33:33.814Z,100523.81
2023-10-04T20:36:02.252Z,100530.06
2023-10-04T20:38:30.377Z,100537.09
2023-10-04T20:40:57.705Z,100522.75
2023-10-04T20:43:25.413Z,100511.91
2023-10-04T20:45:52.518Z,100517.34
2023-10-04T20:48:19.102Z,100522.75
2023-10-04T20:50:46.108Z,100510.00
2023-10-04T20:53:15.048Z,100505.97
2023-10-04T20:55:41.944Z,100508.69
2023-10-04T20:58:10.128Z,100505.44
2023-10-04T21:00:37.771Z,100505.44
2023-10-04T21:03:06.153Z,100505.44
2023-10-04T21:05:33.116Z,100492.97
2023-10-04T21:07:59.665Z,100489.75
2023-10-04T21:10:26.351Z,100484.34
2023-10-04T21:12:52.910Z,100492.44
2023-10-04T21:15:19.560Z,100484.63
2023-10-04T21:17:46.295Z,100493.81
2023-10-04T21:20:18.707Z,100491.66
2023-10-04T21:22:47.291Z,100494.91
2023-10-04T21:25:14.951Z,100491.16
2023-10-04T21:27:41.932Z,100491.97
2023-10-04T21:30:10.336Z,100501.44
2023-10-04T21:32:40.999Z,100496.84
2023-10-04T21:35:21.575Z,100490.91
2023-10-04T21:37:52.913Z,100490.63
2023-10-04T21:40:21.192Z,100490.06
2023-10-04T21:42:48.781Z,100492.53
2023-10-04T21:45:22.006Z,100496.31
2023-10-04T21:47:50.007Z,100493.63
2023-10-04T21:50:17.500Z,100489.00
2023-10-04T21:52:44.116Z,100492.00
2023-10-04T21:55:14.438Z,100502.00
2023-10-04T21:57:42.361Z,100507.72
2023-10-04T22:00:15.628Z,100495.78
2023-10-04T22:02:42.264Z,100499.59
2023-10-04T22:05:11.007Z,100503.34
2023-10-04T22:07:38.271Z,100500.94
2023-10-04T22:10:07.134Z,100493.06
2023-10-04T22:12:33.683Z,100486.03
2023-10-04T22:15:00.868Z,100489.03
2023-10-04T22:17:27.352Z,100493.63
2023-10-04T22:19:54.032Z,100492.00
2023-10-04T22:22:21.246Z,100491.75
2023-10-04T22:25:01.201Z,100489.56
2023-10-04T22:27:30.696Z,100488.78
2023-10-04T22:29:58.545Z,100483.88
2023-10-04T22:32:26.864Z,100496.34
2023-10-04T22:34:53.633Z,100486.88
2023-10-04T22:37:20.429Z,100488.22
2023-10-04T22:39:47.078Z,100485.81
2023-10-04T22:42:13.820Z,100478.47
2023-10-04T22:44:42.043Z,100480.41
2023-10-04T22:47:10.917Z,100483.34
2023-10-04T22:49:38.364Z,100481.72
2023-10-04T22:52:05.314Z,100480.13
2023-10-04T22:54:31.991Z,100482.28
2023-10-04T22:56:59.504Z,100475.25
2023-10-04T22:59:27.094Z,100475.25
2023-10-04T23:01:56.013Z,100471.47
2023-10-04T23:04:23.008Z,100466.06
2023-10-04T23:06:50.518Z,100468.75
2023-10-04T23:09:18.335Z,100471.47
2023-10-04T23:11:46.905Z,100472.00
2023-10-04T23:14:14.174Z,100471.47
2023-10-04T23:16:44.465Z,100472.81
2023-10-04T23:19:17.673Z,100464.97
2023-10-04T23:21:44.657Z,100461.19
2023-10-04T23:24:15.581Z,100454.16
2023-10-04T23:26:42.940Z,100457.94
2023-10-04T23:29:09.895Z,100447.13
2023-10-04T23:31:39.558Z,100444.41
2023-10-04T23:34:09.728Z,100443.88
2023-10-04T23:36:36.709Z,100431.19
2023-10-04T23:39:08.146Z,100423.88
2023-10-04T23:41:35.794Z,100429.56
2023-10-04T23:44:04.812Z,100422.78
2023-10-04T23:46:37.753Z,100431.19
2023-10-04T23:49:11.729Z,100416.56
2023-10-04T23:51:40.380Z,100416.84
2023-10-04T23:54:14.117Z,100412.78
2023-10-04T23:56:54.310Z,100423.31
2023-10-04T23:59:27.522Z,100408.44
